Portland, Oregon
Traffic Map
Current Weather Conditions
Portland, Oregon
Overcast
Overcast
12°
Feels Like: 12°
Wind Chill: 12° Ceiling: 3500
Heat Index: 12° Visibility: 10mi
Dew Point: 10° Wind: 0mph
Humidity: 89% Direction: ° ()
Pressure: 30.1in Gusts: 0mph
Raw Report DataKPDX 231408Z 00000KT 10SM FEW011 BKN035 OVC100 12/10 A3010 RMK AO2 T01170100
Traffic Incident Summary
Active as of:
Severity:
Category:
InformationThere was an issue retrieving the traffic information for this location. Please try a different location or try again shortly.
Advertisements